Traverse City, MI (49684)

7:16 AM EST on February 20, 2017 (GMT -0500)
Summit View | | Change Station
Active Advisory: Small Craft Advisory

Elev 980 ft 44.74 °N, 85.67 °W | Updated 48 seconds ago

Mostly Cloudy
Mostly Cloudy
33.8 °F
Feels Like 34 °F
N
2.0
Wind Variable Wind from East

Today
High -- | Low -- °F
--% Chance of Precip.
Yesterday
High -- | Low -- °F
Precip. -- in
Pressure 30.25 in
Visibility 10.0 miles
Clouds Overcast 25000 ft
Windchill 34 °F
Dew Point 26 °F
Humidity 74%
Rainfall 0.00 in
Snow Depth Not available.
7:34 AM 6:18 PM
Waning Crescent, 34% visible
METAR KTVC 201153Z 00000KT 10SM OVC250 01/M02 A3022 RMK AO2 SLP241 T00061017 10011 21022 53010
Pressure 30.25 in
Visibility 10.0 miles
Clouds Overcast 25000 ft
Windchill 34 °F
Dew Point 26 °F
Humidity 74%
Rainfall 0.00 in
Snow Depth Not available.
7:34 AM 6:18 PM
Waning Crescent, 34% visible
METAR KTVC 201153Z 00000KT 10SM OVC250 01/M02 A3022 RMK AO2 SLP241 T00061017 10011 21022 53010

Get Your Daily Forecast Email!

Thanks for signing up!

Be on the lookout for a verification email in your inbox.

You'll start receiving the daily forecast at 8 AM.

×

10-Day Weather Forecast

Almanac

Astronomy

Feb. 20, 2017 Rise Set
Actual Time
Civil Twilight
Nautical Twilight
Astronomical Twilight
Moon
Length of Visible Light
Length of Day
Tomorrow will be .
, % of the Moon is Illuminated

Today's Extremes

State Highs State Lows

Community

WunderPhotos

Upload Photos

1,962,540 photos uploaded!

WunderBlog® & News

Nearby

Air Quality

  Air Quality AQ Index Pollutant
Not available.

Snow Depth

Station Depth Elevation

Earthquake Activity

City Distance Mag. Time & Date
Minimum magnitude displayed is 2.5.

Coastal Water Temperatures

Place Temperature

Stations

Nearby Weather Stations

Station Location Temp. Windchill Dew Point Humidity Wind Precip. Elev Updated Type
                   

Watches & Warnings

Small Craft Advisory
Issued: 3:54 AM EST Feb. 20, 2017 – National Weather Service

... Small Craft Advisory in effect from 8 am this morning to 7 am
EST Tuesday...

The National Weather Service in Gaylord has issued a Small Craft
Advisory... which is in effect from 8 am this morning to 7 am EST
Tuesday.

* Please see the latest marine forecasts for more detailed
information.

Precautionary/preparedness actions

Inexperienced mariners... especially those operating smaller
vessels should avoid navigating in these conditions.